createdAt,value
2023-02-19T00:01:36.785Z,-6.20
2023-02-19T00:04:07.442Z,-6.26
2023-02-19T00:06:36.063Z,-6.27
2023-02-19T00:09:04.441Z,-6.12
2023-02-19T00:11:33.570Z,-6.07
2023-02-19T00:14:02.257Z,-6.17
2023-02-19T00:16:39.014Z,-6.20
2023-02-19T00:19:08.971Z,-6.15
2023-02-19T00:21:36.133Z,-6.19
2023-02-19T00:24:05.699Z,-6.09
2023-02-19T00:26:33.770Z,-6.08
2023-02-19T00:29:01.748Z,-6.13
2023-02-19T00:31:34.404Z,-6.24
2023-02-19T00:34:04.378Z,-6.27
2023-02-19T00:36:33.045Z,-6.35
2023-02-19T00:39:00.183Z,-6.28
2023-02-19T00:41:29.092Z,-6.18
2023-02-19T00:44:03.307Z,-6.23
2023-02-19T00:46:33.580Z,-6.22
2023-02-19T00:49:01.559Z,-6.11
2023-02-19T00:51:31.252Z,-6.22
2023-02-19T00:54:00.184Z,-6.12
2023-02-19T00:56:28.064Z,-6.01
2023-02-19T00:58:55.981Z,-6.04
2023-02-19T01:01:23.184Z,-6.02
2023-02-19T01:03:51.610Z,-6.06
2023-02-19T01:06:20.634Z,-6.21
2023-02-19T01:08:48.147Z,-6.16
2023-02-19T01:11:16.685Z,-6.15
2023-02-19T01:13:44.544Z,-6.35
2023-02-19T01:16:15.867Z,-6.34
2023-02-19T01:18:43.468Z,-6.47
2023-02-19T01:21:16.354Z,-6.44
2023-02-19T01:23:44.324Z,-6.33
2023-02-19T01:26:17.826Z,-6.37
2023-02-19T01:28:45.780Z,-6.54
2023-02-19T01:31:16.254Z,-6.36
2023-02-19T01:33:48.245Z,-6.33
2023-02-19T01:36:16.778Z,-6.41
2023-02-19T01:38:44.309Z,-6.27
2023-02-19T01:41:14.822Z,-6.38
2023-02-19T01:44:12.377Z,-6.43
2023-02-19T01:46:41.728Z,-6.43
2023-02-19T01:49:21.291Z,-6.45
2023-02-19T01:51:54.468Z,-6.41
2023-02-19T01:54:25.154Z,-6.42
2023-02-19T01:56:52.704Z,-6.28
2023-02-19T01:59:19.923Z,-6.13
2023-02-19T02:01:47.223Z,-6.22
2023-02-19T02:04:16.252Z,-6.10
2023-02-19T02:06:54.352Z,-6.06
2023-02-19T02:09:44.270Z,-6.21
2023-02-19T02:12:12.845Z,-6.25
2023-02-19T02:14:45.241Z,-6.31
2023-02-19T02:17:39.661Z,-6.50
2023-02-19T02:20:24.902Z,-6.60
2023-02-19T02:23:12.405Z,-6.77
2023-02-19T02:26:00.172Z,-6.53
2023-02-19T02:28:37.146Z,-6.55
2023-02-19T02:31:15.418Z,-6.52
2023-02-19T02:33:53.352Z,-6.54
2023-02-19T02:36:24.830Z,-6.63
2023-02-19T02:38:54.327Z,-6.50
2023-02-19T02:41:23.648Z,-6.39
2023-02-19T02:43:50.723Z,-6.39
2023-02-19T02:46:34.258Z,-6.32
2023-02-19T02:49:19.048Z,-6.48
2023-02-19T02:51:51.041Z,-6.63
2023-02-19T02:54:47.909Z,-6.58
2023-02-19T02:57:19.129Z,-6.62
2023-02-19T02:59:53.745Z,-6.50
2023-02-19T03:02:31.231Z,-6.44
2023-02-19T03:05:41.500Z,-6.44
2023-02-19T03:08:19.992Z,-6.58
2023-02-19T03:10:56.140Z,-6.61
2023-02-19T03:13:51.194Z,-6.49
2023-02-19T03:16:42.897Z,-6.40
2023-02-19T03:19:20.065Z,-6.43
2023-02-19T03:21:53.711Z,-6.51
2023-02-19T03:24:49.641Z,-6.50
2023-02-19T03:27:20.653Z,-6.40
2023-02-19T03:29:54.948Z,-6.43
2023-02-19T03:32:49.546Z,-6.39
2023-02-19T03:35:24.710Z,-6.45
2023-02-19T03:38:23.629Z,-6.45
2023-02-19T03:41:16.914Z,-6.67
2023-02-19T03:43:58.492Z,-6.62
2023-02-19T03:46:30.114Z,-6.35
2023-02-19T03:49:04.870Z,-6.40
2023-02-19T03:51:39.948Z,-6.55
2023-02-19T03:54:19.350Z,-6.44
2023-02-19T03:56:46.360Z,-6.53
2023-02-19T03:59:39.353Z,-6.51
2023-02-19T04:02:12.871Z,-6.56
2023-02-19T04:04:45.793Z,-6.54
2023-02-19T04:07:13.564Z,-6.51
2023-02-19T04:09:48.979Z,-6.57
2023-02-19T04:12:21.343Z,-6.41
2023-02-19T04:15:00.963Z,-6.42
2023-02-19T04:17:52.962Z,-6.52
2023-02-19T04:20:22.498Z,-6.56
2023-02-19T04:22:50.168Z,-6.48
2023-02-19T04:25:17.492Z,-6.59
2023-02-19T04:27:46.168Z,-6.77
2023-02-19T04:30:14.315Z,-6.56
2023-02-19T04:32:41.522Z,-6.71
2023-02-19T04:35:08.839Z,-6.63
2023-02-19T04:37:48.693Z,-6.46
2023-02-19T04:40:16.228Z,-6.32
2023-02-19T04:42:43.250Z,-6.51
2023-02-19T04:45:10.306Z,-6.60
2023-02-19T04:47:37.256Z,-6.54
2023-02-19T04:50:24.023Z,-6.43
2023-02-19T04:52:51.089Z,-6.50
2023-02-19T04:55:18.660Z,-6.38
2023-02-19T04:57:45.968Z,-6.40
2023-02-19T05:00:13.969Z,-6.53
2023-02-19T05:02:41.054Z,-6.59
2023-02-19T05:05:08.363Z,-6.61
2023-02-19T05:07:35.378Z,-6.80
2023-02-19T05:10:02.391Z,-6.65
2023-02-19T05:12:31.406Z,-6.60
2023-02-19T05:14:59.269Z,-6.70
2023-02-19T05:17:26.210Z,-6.85
2023-02-19T05:19:53.225Z,-6.89
2023-02-19T05:22:20.211Z,-6.68
2023-02-19T05:24:55.962Z,-6.53
2023-02-19T05:27:26.187Z,-6.56
2023-02-19T05:29:53.175Z,-6.59
2023-02-19T05:32:20.172Z,-6.47
2023-02-19T05:34:47.246Z,-6.40
2023-02-19T05:37:14.242Z,-6.32
2023-02-19T05:39:41.214Z,-6.28
2023-02-19T05:42:08.191Z,-6.25
2023-02-19T05:44:35.153Z,-6.20
2023-02-19T05:47:02.179Z,-6.41
2023-02-19T05:49:29.198Z,-6.30
2023-02-19T05:51:56.120Z,-6.32
2023-02-19T05:54:23.132Z,-6.23
2023-02-19T05:56:50.178Z,-6.29
2023-02-19T05:59:22.366Z,-6.31
2023-02-19T06:01:51.499Z,-6.42
2023-02-19T06:04:20.500Z,-6.40
2023-02-19T06:06:48.208Z,-6.33
2023-02-19T06:09:15.305Z,-6.03
2023-02-19T06:11:43.723Z,-6.12
2023-02-19T06:14:13.127Z,-6.16
2023-02-19T06:16:40.324Z,-6.28
2023-02-19T06:19:07.381Z,-6.14
2023-02-19T06:21:34.526Z,-6.00
2023-02-19T06:24:08.587Z,-5.78
2023-02-19T06:26:35.940Z,-5.80
2023-02-19T06:29:03.096Z,-5.80
2023-02-19T06:31:30.277Z,-5.93
2023-02-19T06:33:57.368Z,-5.82
2023-02-19T06:36:24.621Z,-5.86
2023-02-19T06:38:52.171Z,-5.87
2023-02-19T06:41:19.806Z,-5.72
2023-02-19T06:43:46.983Z,-5.88
2023-02-19T06:46:14.510Z,-5.92
2023-02-19T06:48:43.599Z,-5.63
2023-02-19T06:51:19.631Z,-5.79
2023-02-19T06:53:46.932Z,-5.76
2023-02-19T06:56:53.819Z,-5.70
2023-02-19T06:59:35.609Z,-5.38
2023-02-19T07:02:31.289Z,-5.45
2023-02-19T07:08:15.081Z,-5.29
2023-02-19T07:10:49.099Z,-5.32
2023-02-19T07:13:29.681Z,-5.37
2023-02-19T07:16:04.510Z,-5.20
2023-02-19T07:18:44.119Z,-5.31
2023-02-19T07:21:41.640Z,-5.41
2023-02-19T07:24:24.484Z,-5.62
2023-02-19T07:26:57.856Z,-5.48
2023-02-19T07:29:28.123Z,-5.43
2023-02-19T07:32:05.608Z,-5.68
2023-02-19T07:34:33.607Z,-5.68
2023-02-19T07:37:03.166Z,-5.67
2023-02-19T07:39:32.564Z,-5.42
2023-02-19T07:42:09.542Z,-5.34
2023-02-19T07:44:40.553Z,-5.45
2023-02-19T07:47:20.915Z,-5.41
2023-02-19T07:50:07.765Z,-5.28
2023-02-19T07:52:48.109Z,-5.34
2023-02-19T07:55:27.400Z,-5.27
2023-02-19T08:01:21.152Z,-5.41
2023-02-19T08:07:28.389Z,-5.24
2023-02-19T08:13:53.105Z,-5.46
2023-02-19T08:16:57.572Z,-5.38
2023-02-19T08:20:14.430Z,-5.21
2023-02-19T08:28:57.384Z,-5.02
2023-02-19T08:35:29.545Z,-4.77
2023-02-19T08:38:30.954Z,-5.00
2023-02-19T08:41:46.412Z,-4.82
2023-02-19T08:45:03.732Z,-5.25
2023-02-19T08:48:34.666Z,-5.16
2023-02-19T08:51:47.420Z,-5.13
2023-02-19T08:56:25.703Z,-4.97
2023-02-19T08:59:47.842Z,-4.94
2023-02-19T09:03:03.625Z,-4.87
2023-02-19T09:09:58.552Z,-5.32
2023-02-19T09:12:52.579Z,-5.36
2023-02-19T09:16:04.169Z,-5.36
2023-02-19T09:19:09.808Z,-5.29
2023-02-19T09:22:13.240Z,-5.11
2023-02-19T09:25:45.472Z,-4.92
2023-02-19T09:29:06.166Z,-4.73
2023-02-19T09:31:59.278Z,-4.68
2023-02-19T09:35:03.095Z,-4.80
2023-02-19T09:42:05.003Z,-4.93
2023-02-19T09:45:23.663Z,-5.06
2023-02-19T09:48:16.665Z,-4.82
2023-02-19T09:50:47.817Z,-4.82
2023-02-19T09:53:21.233Z,-4.74
2023-02-19T09:55:48.796Z,-4.74
2023-02-19T09:58:33.510Z,-4.45
2023-02-19T10:01:03.502Z,-4.44
2023-02-19T10:03:34.531Z,-4.27
2023-02-19T10:06:24.870Z,-4.17
2023-02-19T10:08:55.971Z,-4.41
2023-02-19T10:11:26.495Z,-4.55
2023-02-19T10:14:09.433Z,-4.67
2023-02-19T10:16:41.138Z,-4.91
2023-02-19T10:19:13.013Z,-4.70
2023-02-19T10:21:41.963Z,-4.50
2023-02-19T10:24:20.713Z,-4.28
2023-02-19T10:26:48.132Z,-4.15
2023-02-19T10:29:15.122Z,-4.34
2023-02-19T10:31:42.262Z,-4.29
2023-02-19T10:34:20.734Z,-4.34
2023-02-19T10:36:51.087Z,-4.41
2023-02-19T10:39:39.639Z,-4.67
2023-02-19T10:42:13.732Z,-4.71
2023-02-19T10:44:44.972Z,-4.72
2023-02-19T10:47:18.645Z,-4.82
2023-02-19T10:49:48.861Z,-4.58
2023-02-19T10:52:18.569Z,-4.50
2023-02-19T10:54:46.854Z,-4.36
2023-02-19T10:57:19.705Z,-4.41
2023-02-19T10:59:57.773Z,-4.26
2023-02-19T11:02:25.957Z,-4.31
2023-02-19T11:05:17.142Z,-3.97
2023-02-19T11:07:57.869Z,-4.17
2023-02-19T11:10:38.735Z,-3.97
2023-02-19T11:13:08.114Z,-3.67
2023-02-19T11:15:37.540Z,-3.41
2023-02-19T11:18:18.912Z,-3.72
2023-02-19T11:20:56.050Z,-3.45
2023-02-19T11:23:34.381Z,-3.72
2023-02-19T11:26:06.688Z,-3.97
2023-02-19T11:28:39.846Z,-4.02
2023-02-19T11:31:32.146Z,-4.41
2023-02-19T11:34:01.898Z,-4.57
2023-02-19T11:36:34.659Z,-4.52
2023-02-19T11:39:17.013Z,-4.61
2023-02-19T11:41:50.201Z,-4.60
2023-02-19T11:44:26.172Z,-4.48
2023-02-19T11:47:01.256Z,-4.33
2023-02-19T11:50:03.768Z,-4.54
2023-02-19T11:52:36.407Z,-4.40
2023-02-19T11:55:15.620Z,-4.61
2023-02-19T11:57:54.318Z,-4.40
2023-02-19T12:00:28.570Z,-4.54
2023-02-19T12:03:17.867Z,-4.56
2023-02-19T12:06:06.466Z,-4.44
2023-02-19T12:08:36.392Z,-4.30
2023-02-19T12:11:16.412Z,-4.20
2023-02-19T12:14:28.213Z,-4.30
2023-02-19T12:17:29.101Z,-4.31
2023-02-19T12:20:33.016Z,-4.11
2023-02-19T12:23:45.212Z,-4.15
2023-02-19T12:26:24.280Z,-4.49
2023-02-19T12:29:13.336Z,-4.66
2023-02-19T12:31:43.349Z,-4.51
2023-02-19T12:34:25.554Z,-4.46
2023-02-19T12:37:11.273Z,-4.42
2023-02-19T12:40:15.951Z,-4.30
2023-02-19T12:42:45.572Z,-4.44
2023-02-19T12:46:03.591Z,-4.38
2023-02-19T12:48:46.486Z,-4.28
2023-02-19T12:51:46.562Z,-4.28
2023-02-19T12:54:19.439Z,-4.53
2023-02-19T12:57:03.014Z,-4.41
2023-02-19T12:59:39.486Z,-4.46
2023-02-19T13:02:16.724Z,-4.47
2023-02-19T13:04:46.808Z,-4.57
2023-02-19T13:07:16.827Z,-4.58
2023-02-19T13:10:22.869Z,-4.53
2023-02-19T13:12:51.649Z,-4.45
2023-02-19T13:15:37.878Z,-4.35
2023-02-19T13:18:16.483Z,-4.27
2023-02-19T13:20:46.693Z,-4.12
2023-02-19T13:23:42.497Z,-4.08
2023-02-19T13:26:31.423Z,-4.11
2023-02-19T13:29:16.731Z,-4.46
2023-02-19T13:31:49.588Z,-4.54
2023-02-19T13:34:16.680Z,-4.65
2023-02-19T13:36:44.214Z,-4.55
2023-02-19T13:39:29.253Z,-4.69
2023-02-19T13:41:59.419Z,-4.62
2023-02-19T13:44:32.686Z,-4.64
2023-02-19T13:47:00.911Z,-4.60
2023-02-19T13:49:27.926Z,-4.85
2023-02-19T13:52:30.231Z,-4.75
2023-02-19T13:55:35.329Z,-4.80
2023-02-19T13:58:33.518Z,-4.67
2023-02-19T14:01:11.877Z,-4.79
2023-02-19T14:03:53.369Z,-5.01
2023-02-19T14:06:28.770Z,-4.78
2023-02-19T14:09:00.651Z,-4.90
2023-02-19T14:11:48.194Z,-4.85
2023-02-19T14:14:38.943Z,-4.73
2023-02-19T14:17:09.010Z,-4.73
2023-02-19T14:19:41.851Z,-4.77
2023-02-19T14:22:58.158Z,-4.73
2023-02-19T14:25:31.461Z,-4.78
2023-02-19T14:28:22.017Z,-4.84
2023-02-19T14:31:01.313Z,-4.71
2023-02-19T14:33:32.744Z,-4.59
2023-02-19T14:36:18.834Z,-4.43
2023-02-19T14:38:54.975Z,-4.34
2023-02-19T14:41:27.097Z,-4.49
2023-02-19T14:43:58.713Z,-4.55
2023-02-19T14:46:37.602Z,-4.46
2023-02-19T14:49:22.056Z,-4.67
2023-02-19T14:52:20.223Z,-4.65
2023-02-19T14:55:15.538Z,-4.76
2023-02-19T14:57:49.082Z,-4.84
2023-02-19T15:00:36.140Z,-4.91
2023-02-19T15:03:24.998Z,-4.95
2023-02-19T15:06:08.943Z,-4.86
2023-02-19T15:08:44.191Z,-4.83
2023-02-19T15:11:17.608Z,-5.01
2023-02-19T15:13:51.626Z,-4.90
2023-02-19T15:16:21.598Z,-4.88
2023-02-19T15:18:50.540Z,-4.70
2023-02-19T15:21:27.418Z,-4.64
2023-02-19T15:23:58.478Z,-4.72
2023-02-19T15:26:36.224Z,-4.74
2023-02-19T15:29:27.838Z,-4.71
2023-02-19T15:31:59.116Z,-4.59
2023-02-19T15:34:32.291Z,-4.44
2023-02-19T15:37:08.331Z,-4.47
2023-02-19T15:39:43.731Z,-4.74
2023-02-19T15:42:17.990Z,-4.66
2023-02-19T15:44:54.112Z,-4.44
2023-02-19T15:47:29.680Z,-4.37
2023-02-19T15:50:08.494Z,-4.51
2023-02-19T15:52:45.537Z,-4.58
2023-02-19T15:55:38.046Z,-4.53
2023-02-19T15:58:30.375Z,-4.63
2023-02-19T16:01:06.522Z,-4.89
2023-02-19T16:03:37.526Z,-4.80
2023-02-19T16:06:15.744Z,-4.66
2023-02-19T16:08:53.178Z,-4.60
2023-02-19T16:11:28.105Z,-4.72
2023-02-19T16:14:18.578Z,-4.73
2023-02-19T16:16:49.400Z,-4.88
2023-02-19T16:19:32.717Z,-4.89
2023-02-19T16:22:01.367Z,-4.79
2023-02-19T16:24:34.783Z,-4.71
2023-02-19T16:27:05.324Z,-4.76
2023-02-19T16:29:37.533Z,-4.74
2023-02-19T16:32:07.671Z,-4.70
2023-02-19T16:34:40.852Z,-4.49
2023-02-19T16:37:44.252Z,-4.38
2023-02-19T16:40:16.607Z,-4.35
2023-02-19T16:42:49.853Z,-4.49
2023-02-19T16:45:17.931Z,-4.46
2023-02-19T16:47:48.589Z,-4.52
2023-02-19T16:50:24.056Z,-4.41
2023-02-19T16:52:57.127Z,-4.33
2023-02-19T16:55:24.573Z,-4.43
2023-02-19T16:57:52.199Z,-4.46
2023-02-19T17:00:25.383Z,-4.43
2023-02-19T17:02:55.812Z,-4.41
2023-02-19T17:05:25.602Z,-4.32
2023-02-19T17:07:53.007Z,-4.52
2023-02-19T17:10:25.052Z,-4.55
2023-02-19T17:12:53.737Z,-4.55
2023-02-19T17:15:21.592Z,-4.49
2023-02-19T17:17:48.732Z,-4.49
2023-02-19T17:20:24.319Z,-4.49
2023-02-19T17:22:51.596Z,-4.55
2023-02-19T17:25:18.644Z,-4.43
2023-02-19T17:27:45.602Z,-4.63
2023-02-19T17:30:31.799Z,-4.65
2023-02-19T17:33:00.860Z,-4.60
2023-02-19T17:35:28.420Z,-4.66
2023-02-19T17:37:57.033Z,-4.60
2023-02-19T17:40:33.551Z,-4.48
2023-02-19T17:43:01.894Z,-4.50
2023-02-19T17:45:29.733Z,-4.58
2023-02-19T17:47:57.091Z,-4.49
2023-02-19T17:50:28.056Z,-4.40
2023-02-19T17:52:55.532Z,-4.50
2023-02-19T17:55:22.956Z,-4.31
2023-02-19T17:57:52.225Z,-4.39
2023-02-19T18:00:28.991Z,-4.30
2023-02-19T18:02:56.568Z,-4.38
2023-02-19T18:05:24.772Z,-4.39
2023-02-19T18:07:52.101Z,-4.26
2023-02-19T18:10:21.089Z,-4.23
2023-02-19T18:12:49.087Z,-4.25
2023-02-19T18:15:22.116Z,-4.22
2023-02-19T18:17:49.371Z,-4.27
2023-02-19T18:20:18.250Z,-4.28
2023-02-19T18:22:45.355Z,-4.44
2023-02-19T18:25:12.506Z,-4.36
2023-02-19T18:27:40.334Z,-4.36
2023-02-19T18:30:08.861Z,-4.28
2023-02-19T18:32:36.552Z,-4.29
2023-02-19T18:35:04.798Z,-4.38
2023-02-19T18:37:33.964Z,-4.39
2023-02-19T18:40:01.690Z,-4.44
2023-02-19T18:42:30.885Z,-4.39
2023-02-19T18:44:58.220Z,-4.64
2023-02-19T18:47:25.865Z,-4.53
2023-02-19T18:49:58.459Z,-4.61
2023-02-19T18:52:27.322Z,-4.60
2023-02-19T18:54:55.855Z,-4.39
2023-02-19T18:57:24.670Z,-4.43
2023-02-19T18:59:51.667Z,-4.50
2023-02-19T19:02:19.476Z,-4.50
2023-02-19T19:04:57.364Z,-4.57
2023-02-19T19:07:24.509Z,-4.56
2023-02-19T19:09:51.689Z,-4.48
2023-02-19T19:12:19.364Z,-4.45
2023-02-19T19:14:46.598Z,-4.46
2023-02-19T19:17:13.923Z,-4.51
2023-02-19T19:19:45.679Z,-4.53
2023-02-19T19:22:13.216Z,-4.55
2023-02-19T19:24:40.453Z,-4.53
2023-02-19T19:27:07.580Z,-4.45
2023-02-19T19:29:34.952Z,-4.66
2023-02-19T19:32:02.623Z,-4.58
2023-02-19T19:34:30.024Z,-4.53
2023-02-19T19:36:57.045Z,-4.54
2023-02-19T19:39:24.140Z,-4.65
2023-02-19T19:41:57.820Z,-4.68
2023-02-19T19:44:24.927Z,-4.70
2023-02-19T19:46:52.214Z,-4.60
2023-02-19T19:49:21.141Z,-4.61
2023-02-19T19:51:48.855Z,-4.53
2023-02-19T19:54:16.635Z,-4.57
2023-02-19T19:56:46.437Z,-4.66
2023-02-19T19:59:15.362Z,-4.58
2023-02-19T20:01:53.139Z,-4.55
2023-02-19T20:04:22.267Z,-4.68
2023-02-19T20:06:49.763Z,-4.62
2023-02-19T20:09:18.227Z,-4.53
2023-02-19T20:11:47.253Z,-4.71
2023-02-19T20:14:15.187Z,-4.84
2023-02-19T20:16:44.642Z,-4.77
2023-02-19T20:19:12.257Z,-4.83
2023-02-19T20:21:39.255Z,-4.75
2023-02-19T20:24:06.602Z,-4.54
2023-02-19T20:26:33.593Z,-4.52
2023-02-19T20:29:00.918Z,-4.47
2023-02-19T20:31:28.187Z,-4.48
2023-02-19T20:33:55.773Z,-4.37
2023-02-19T20:36:22.854Z,-4.28
2023-02-19T20:38:50.420Z,-4.17
2023-02-19T20:41:17.436Z,-4.08
2023-02-19T20:43:44.387Z,-4.02
2023-02-19T20:46:12.246Z,-3.98
2023-02-19T20:48:39.767Z,-3.85
2023-02-19T20:51:06.807Z,-3.78
2023-02-19T20:53:33.980Z,-3.76
2023-02-19T20:56:01.144Z,-3.65
2023-02-19T20:58:28.162Z,-3.53
2023-02-19T21:00:55.935Z,-3.49
2023-02-19T21:03:23.026Z,-3.41
2023-02-19T21:05:50.178Z,-3.53
2023-02-19T21:08:17.549Z,-3.67
2023-02-19T21:10:46.376Z,-3.63
2023-02-19T21:13:13.791Z,-3.62
2023-02-19T21:15:41.076Z,-3.52
2023-02-19T21:18:08.206Z,-3.73
2023-02-19T21:20:35.258Z,-3.53
2023-02-19T21:23:02.388Z,-3.65
2023-02-19T21:25:31.556Z,-3.71
2023-02-19T21:27:58.912Z,-3.54
2023-02-19T21:30:26.195Z,-3.62
2023-02-19T21:32:54.446Z,-3.54
2023-02-19T21:35:21.502Z,-3.51
2023-02-19T21:37:48.557Z,-3.42
2023-02-19T21:40:15.604Z,-3.39
2023-02-19T21:42:42.619Z,-3.31
2023-02-19T21:45:09.862Z,-3.17
2023-02-19T21:47:36.846Z,-3.10
2023-02-19T21:50:04.120Z,-2.99
2023-02-19T21:52:31.510Z,-2.86
2023-02-19T21:54:58.948Z,-2.81
2023-02-19T21:57:25.881Z,-2.75
2023-02-19T21:59:52.950Z,-2.72
2023-02-19T22:02:22.195Z,-2.78
2023-02-19T22:04:53.907Z,-2.80
2023-02-19T22:07:22.438Z,-2.83
2023-02-19T22:09:50.307Z,-2.73
2023-02-19T22:12:18.549Z,-2.71
2023-02-19T22:14:45.775Z,-2.66
2023-02-19T22:17:12.805Z,-2.59
2023-02-19T22:19:39.849Z,-2.60
2023-02-19T22:22:07.072Z,-2.56
2023-02-19T22:24:34.279Z,-2.54
2023-02-19T22:27:01.439Z,-2.51
2023-02-19T22:29:28.834Z,-2.46
2023-02-19T22:31:56.281Z,-2.50
2023-02-19T22:34:23.545Z,-2.49
2023-02-19T22:36:50.484Z,-2.43
2023-02-19T22:39:24.610Z,-2.42
2023-02-19T22:41:52.169Z,-2.45
2023-02-19T22:44:19.195Z,-2.56
2023-02-19T22:46:51.594Z,-2.56
2023-02-19T22:49:19.462Z,-2.58
2023-02-19T22:51:52.299Z,-2.65
2023-02-19T22:54:25.033Z,-2.60
2023-02-19T22:56:53.254Z,-2.62
2023-02-19T22:59:21.313Z,-2.62
2023-02-19T23:01:49.968Z,-2.59
2023-02-19T23:04:17.357Z,-2.56
2023-02-19T23:06:45.963Z,-2.60
2023-02-19T23:09:19.689Z,-2.57
2023-02-19T23:11:47.187Z,-2.55
2023-02-19T23:14:17.369Z,-2.50
2023-02-19T23:16:44.668Z,-2.50
2023-02-19T23:19:14.350Z,-2.51
2023-02-19T23:21:43.300Z,-2.47
2023-02-19T23:24:11.664Z,-2.45
2023-02-19T23:26:47.047Z,-2.45
2023-02-19T23:29:19.870Z,-2.44
2023-02-19T23:31:47.541Z,-2.48
2023-02-19T23:34:14.994Z,-2.55
2023-02-19T23:36:48.496Z,-2.57
2023-02-19T23:39:17.665Z,-2.58
2023-02-19T23:41:50.548Z,-2.59
2023-02-19T23:44:18.339Z,-2.70
2023-02-19T23:46:45.523Z,-2.72
2023-02-19T23:49:13.535Z,-2.75
2023-02-19T23:51:40.989Z,-2.73
2023-02-19T23:54:08.718Z,-2.68
2023-02-19T23:56:35.967Z,-2.76
2023-02-19T23:59:04.043Z,-2.83
